Aérodrome :
LOGIN :

S'inscrire | Disclaimer

   EN    FR    IT 

 










Légende :    VFR   VFR Marginal   IFR   IFR Intensif   IFR Très Intensif
Visi : 
Plafond : 
>= 8 km
>= 3000ft
5 à 8 km
1000 à 3000 ft
1500m à 5 km
500 à 1000 ft
800 à 1500m
200 à 500 ft
< 800m
< 200 ft
Symboles :   Orages  Brouillard  Fortes neiges  Fortes précipitations  Vent > 20 kt
SIGMETs :   Divers  Orages  Givrage  Turbulence  Onde Orograph.  Cendres Volcan.






- Altitude de l'aérodrome : 124 ft
- Code IATA : RNS


LFRN - Rennes

DERNIER METAR :
  • 262130Z AUTO 18012KT 5000 -RA BR BKN009/// OVC014/// ///CB 11/10 Q1011 TEMPO BKN007

METARs EXPIRÉS :
  • 262100Z AUTO 19011KT 9999 -RA OVC012/// ///TCU 11/09 Q1012 TEMPO 3000 RA BKN007
  • 262030Z AUTO 18013KT 9999 -RA BKN010/// OVC014/// ///TCU 11/09 Q1012 TEMPO 3000 RA BKN007
  • 262000Z AUTO 18015KT 9999 BKN009/// BKN014/// OVC021/// ///TCU 11/09 Q1012 TEMPO 3000 RA
  • 261930Z AUTO 19013KT 9999 -RA BKN009/// BKN013/// BKN020/// ///CB 10/09 Q1012 TEMPO 3000 RA
  • 261900Z AUTO 19015KT 6000 RA BKN008/// OVC012/// ///CB 10/09 Q1012 TEMPO 20015G25KT 3000 RA

TAF TAF LFRN
Valide du 26 à 18h jusqu'au 27 à 18h UTC


261700Z 2618/2718 20015G25KT 9999 BKN020
TEMPO 2618/2622 3000 RA BKN007 BKN015TCU
BECMG 2620/2622 22010KT
TEMPO 2622/2709 BKN007
PROB40
TEMPO 2703/2707 3000 RA BKN005
TEMPO 2709/2718 3000 SHRA BKN012TCU
PROB30
TEMPO 2711/2716 23015G25KT 3000 SHRA BKN010CB
PROB40
TEMPO 2716/2718 23015G30KT 3000 TSRAGS BKN010CB
ATIS : +33 2 99 67 72 50



MET'MAP, la Météo Aéronautique d'un coup d'oeil ! - Copyright ORBIFLY Décembre 2007 - Disclaimer

ORBIFLY MET'MAP TEAM :

Programmation & Développement : Alexandra Zaïnal
Sur une idée originale de : Baudouin d'Aumeries
Assistance à la programmation : Marc-Olivier Méhu
Soutien technique & logistique : Manuel Goepfert

Contact : metmap@orbifly.com




SOURCES & CREDITS :

   NOAA